createdAt,value
2019-05-02T00:03:31.039Z,7.64
2019-05-02T00:08:33.172Z,7.59
2019-05-02T00:13:35.670Z,7.58
2019-05-02T00:18:38.887Z,7.51
2019-05-02T00:23:40.304Z,7.43
2019-05-02T00:28:42.915Z,7.36
2019-05-02T00:33:44.849Z,7.33
2019-05-02T00:38:46.318Z,7.31
2019-05-02T00:43:47.690Z,7.26
2019-05-02T00:48:49.307Z,7.24
2019-05-02T00:53:50.596Z,7.24
2019-05-02T00:58:52.188Z,7.27
2019-05-02T01:03:53.816Z,7.26
2019-05-02T01:08:55.661Z,7.22
2019-05-02T01:13:57.743Z,7.19
2019-05-02T01:18:59.116Z,7.12
2019-05-02T01:24:03.076Z,7.07
2019-05-02T01:29:03.654Z,7.05
2019-05-02T01:34:05.058Z,6.98
2019-05-02T01:39:07.620Z,6.94
2019-05-02T01:44:09.579Z,6.90
2019-05-02T01:49:10.816Z,6.85
2019-05-02T01:54:12.376Z,6.81
2019-05-02T01:59:13.623Z,6.80
2019-05-02T02:04:16.152Z,6.77
2019-05-02T02:09:18.051Z,6.70
2019-05-02T02:14:19.638Z,6.64
2019-05-02T02:19:21.035Z,6.56
2019-05-02T02:24:25.254Z,6.55
2019-05-02T02:29:26.137Z,6.57
2019-05-02T02:34:29.920Z,6.54
2019-05-02T02:39:30.915Z,6.50
2019-05-02T02:44:33.582Z,6.50
2019-05-02T02:49:35.574Z,6.48
2019-05-02T02:54:43.086Z,6.47
2019-05-02T02:59:40.162Z,6.47
2019-05-02T03:04:43.925Z,6.42
2019-05-02T03:09:44.556Z,6.40
2019-05-02T03:14:47.272Z,6.39
2019-05-02T03:19:54.209Z,6.35
2019-05-02T03:24:52.062Z,6.35
2019-05-02T03:29:53.272Z,6.29
2019-05-02T03:34:54.732Z,6.25
2019-05-02T03:40:00.188Z,6.22
2019-05-02T03:45:04.398Z,6.17
2019-05-02T03:50:03.358Z,6.12
2019-05-02T03:55:04.592Z,6.07
2019-05-02T04:00:05.853Z,6.03
2019-05-02T04:05:07.181Z,6.00
2019-05-02T04:10:13.348Z,5.97
2019-05-02T04:15:12.719Z,5.92
2019-05-02T04:20:14.103Z,5.93
2019-05-02T04:25:15.507Z,5.97
2019-05-02T04:30:16.756Z,6.02
2019-05-02T04:35:18.360Z,6.32
2019-05-02T04:40:20.029Z,6.24
2019-05-02T04:45:28.738Z,6.42
2019-05-02T04:50:29.265Z,6.62
2019-05-02T04:55:33.265Z,6.74
2019-05-02T05:00:32.939Z,6.84
2019-05-02T05:05:34.586Z,6.91
2019-05-02T05:10:41.450Z,7.07
2019-05-02T05:15:48.369Z,7.32
2019-05-02T05:20:46.051Z,7.54
2019-05-02T05:25:47.907Z,7.75
2019-05-02T05:30:52.235Z,7.96
2019-05-02T05:35:53.427Z,8.17
2019-05-02T05:40:55.216Z,8.33
2019-05-02T05:46:09.071Z,8.48
2019-05-02T05:51:00.022Z,8.66
2019-05-02T05:56:02.597Z,8.80
2019-05-02T06:01:07.035Z,8.73
2019-05-02T06:06:09.748Z,8.75
2019-05-02T06:11:10.510Z,8.79
2019-05-02T06:16:15.041Z,8.94
2019-05-02T06:21:17.079Z,9.05
2019-05-02T06:26:19.404Z,9.11
2019-05-02T06:31:20.699Z,9.16
2019-05-02T06:36:21.986Z,9.33
2019-05-02T06:41:23.604Z,9.23
2019-05-02T06:46:36.443Z,9.29
2019-05-02T06:51:38.000Z,9.37
2019-05-02T06:56:43.048Z,9.50
2019-05-02T07:01:42.682Z,9.70
2019-05-02T07:06:57.669Z,9.83
2019-05-02T07:11:56.915Z,9.96
2019-05-02T07:16:54.634Z,10.13
2019-05-02T07:21:58.424Z,10.38
2019-05-02T07:26:58.156Z,10.52
2019-05-02T07:31:59.475Z,10.63
2019-05-02T07:37:00.976Z,10.79
2019-05-02T07:42:05.809Z,10.98
2019-05-02T07:47:05.689Z,11.26
2019-05-02T07:52:07.029Z,11.68
2019-05-02T07:57:08.399Z,12.07
2019-05-02T08:02:09.794Z,12.53
2019-05-02T08:07:11.286Z,12.90
2019-05-02T08:12:12.526Z,13.48
2019-05-02T08:17:16.976Z,14.23
2019-05-02T08:22:17.404Z,14.79
2019-05-02T08:27:18.647Z,15.07
2019-05-02T08:32:20.190Z,15.76
2019-05-02T08:37:21.444Z,16.49
2019-05-02T08:42:22.794Z,16.40
2019-05-02T08:47:28.516Z,16.76
2019-05-02T08:52:27.306Z,17.01
2019-05-02T08:57:30.084Z,17.36
2019-05-02T09:02:41.086Z,17.56
2019-05-02T09:07:37.095Z,17.17
2019-05-02T09:12:43.650Z,17.83
2019-05-02T09:17:44.624Z,17.74
2019-05-02T09:22:51.387Z,17.63
2019-05-02T09:27:49.997Z,17.42
2019-05-02T09:32:52.179Z,17.70
2019-05-02T09:37:54.121Z,17.89
2019-05-02T09:43:00.006Z,18.29
2019-05-02T09:48:05.160Z,18.04
2019-05-02T09:53:02.122Z,17.57
2019-05-02T09:58:03.467Z,17.07
2019-05-02T10:03:05.243Z,16.53
2019-05-02T10:08:09.110Z,16.03
2019-05-02T10:13:12.067Z,15.43
2019-05-02T10:18:14.593Z,15.06
2019-05-02T10:23:19.482Z,14.82
2019-05-02T10:28:19.976Z,14.57
2019-05-02T10:33:22.532Z,14.48
2019-05-02T10:38:24.215Z,14.25
2019-05-02T10:43:25.460Z,14.28
2019-05-02T10:48:28.624Z,14.31
2019-05-02T10:53:32.137Z,14.41
2019-05-02T10:58:35.723Z,14.63
2019-05-02T11:03:38.120Z,14.65
2019-05-02T11:08:42.242Z,14.71
2019-05-02T11:13:43.263Z,15.08
2019-05-02T11:18:45.315Z,15.07
2019-05-02T11:23:46.666Z,14.91
2019-05-02T11:28:48.222Z,14.48
2019-05-02T11:33:49.909Z,14.07
2019-05-02T11:38:59.556Z,13.82
2019-05-02T11:43:55.841Z,14.01
2019-05-02T11:48:58.667Z,13.83
2019-05-02T11:54:05.179Z,13.62
2019-05-02T11:59:04.475Z,14.33
2019-05-02T12:04:07.576Z,14.74
2019-05-02T12:09:08.902Z,14.75
2019-05-02T12:14:12.224Z,14.14
2019-05-02T12:19:14.935Z,14.08
2019-05-02T12:24:16.475Z,13.62
2019-05-02T12:29:18.065Z,13.47
2019-05-02T12:34:21.594Z,13.72
2019-05-02T12:39:22.916Z,13.61
2019-05-02T12:44:24.501Z,13.48
2019-05-02T12:49:28.014Z,13.34
2019-05-02T12:54:29.444Z,13.39
2019-05-02T12:59:32.194Z,13.71
2019-05-02T13:04:33.689Z,13.70
2019-05-02T13:09:35.031Z,13.65
2019-05-02T13:14:37.581Z,13.30
2019-05-02T13:19:41.369Z,13.31
2019-05-02T13:24:42.379Z,13.26
2019-05-02T13:29:43.761Z,13.64
2019-05-02T13:34:48.703Z,13.97
2019-05-02T13:39:48.429Z,13.94
2019-05-02T13:44:49.678Z,13.88
2019-05-02T13:49:54.869Z,14.24
2019-05-02T13:54:56.790Z,14.41
2019-05-02T13:59:58.054Z,14.36
2019-05-02T14:04:59.424Z,14.55
2019-05-02T14:10:02.472Z,14.83
2019-05-02T14:15:04.208Z,14.91
2019-05-02T14:20:10.753Z,15.10
2019-05-02T14:25:08.766Z,15.38
2019-05-02T14:30:12.003Z,15.36
2019-05-02T14:35:13.612Z,15.47
2019-05-02T14:40:15.514Z,15.49
2019-05-02T14:45:27.235Z,15.20
2019-05-02T14:50:24.299Z,14.74
2019-05-02T14:55:25.615Z,14.74
2019-05-02T15:00:33.388Z,15.13
2019-05-02T15:05:30.376Z,15.21
2019-05-02T15:10:35.047Z,15.38
2019-05-02T15:15:40.714Z,15.28
2019-05-02T15:20:39.472Z,15.56
2019-05-02T15:25:42.368Z,15.64
2019-05-02T15:30:49.188Z,15.76
2019-05-02T15:35:47.381Z,15.58
2019-05-02T15:40:51.467Z,15.57
2019-05-02T15:45:52.730Z,15.37
2019-05-02T15:50:55.350Z,15.45
2019-05-02T15:55:57.588Z,15.29
2019-05-02T16:01:01.715Z,15.59
2019-05-02T16:06:02.322Z,15.49
2019-05-02T16:11:03.637Z,15.42
2019-05-02T16:16:05.576Z,15.78
2019-05-02T16:21:08.001Z,15.68
2019-05-02T16:26:09.418Z,17.19
2019-05-02T16:31:12.574Z,17.28
2019-05-02T16:36:14.095Z,17.67
2019-05-02T16:41:15.343Z,16.94
2019-05-02T16:46:16.714Z,16.03
2019-05-02T16:51:30.305Z,15.59
2019-05-02T16:56:22.276Z,15.29
2019-05-02T17:01:27.517Z,14.89
2019-05-02T17:06:27.207Z,14.75
2019-05-02T17:11:34.122Z,14.42
2019-05-02T17:16:31.890Z,14.44
2019-05-02T17:21:52.343Z,14.24
2019-05-02T17:26:36.749Z,14.12
2019-05-02T17:31:40.295Z,13.89
2019-05-02T17:36:43.021Z,13.98
2019-05-02T17:41:45.760Z,14.04
2019-05-02T17:46:50.811Z,14.01
2019-05-02T17:51:51.882Z,13.67
2019-05-02T17:56:57.628Z,13.53
2019-05-02T18:01:56.753Z,13.53
2019-05-02T18:06:58.373Z,13.40
2019-05-02T18:12:01.509Z,13.17
2019-05-02T18:17:02.987Z,13.12
2019-05-02T18:22:07.158Z,13.09
2019-05-02T18:27:08.079Z,12.92
2019-05-02T18:32:17.454Z,12.80
2019-05-02T18:37:17.869Z,12.47
2019-05-02T18:42:22.115Z,12.17
2019-05-02T18:47:24.801Z,12.06
2019-05-02T18:52:36.414Z,11.88
2019-05-02T18:57:30.391Z,11.80
2019-05-02T19:02:35.415Z,11.79
2019-05-02T19:07:35.916Z,11.86
2019-05-02T19:12:37.321Z,11.84
2019-05-02T19:17:40.519Z,11.65
2019-05-02T19:22:48.802Z,11.69
2019-05-02T19:27:45.922Z,12.13
2019-05-02T19:32:47.723Z,11.93
2019-05-02T19:37:49.335Z,11.90
2019-05-02T19:42:52.695Z,11.82
2019-05-02T19:47:57.695Z,11.71
2019-05-02T19:53:02.063Z,11.63
2019-05-02T19:58:06.266Z,11.65
2019-05-02T20:03:05.608Z,11.57
2019-05-02T20:08:09.695Z,11.53
2019-05-02T20:13:12.017Z,11.55
2019-05-02T20:18:14.918Z,11.44
2019-05-02T20:23:18.768Z,11.41
2019-05-02T20:28:21.312Z,11.41
2019-05-02T20:33:23.212Z,11.34
2019-05-02T20:38:24.917Z,11.30
2019-05-02T20:43:26.724Z,11.24
2019-05-02T20:48:28.676Z,11.24
2019-05-02T20:53:33.378Z,11.19
2019-05-02T20:58:33.272Z,11.07
2019-05-02T21:03:35.012Z,10.90
2019-05-02T21:08:36.443Z,10.89
2019-05-02T21:13:37.715Z,10.86
2019-05-02T21:18:39.023Z,10.76
2019-05-02T21:23:44.773Z,10.75
2019-05-02T21:28:46.103Z,10.74
2019-05-02T21:33:47.080Z,10.71
2019-05-02T21:38:48.791Z,10.65
2019-05-02T21:43:51.895Z,10.71
2019-05-02T21:48:53.783Z,10.69
2019-05-02T21:53:58.144Z,10.65
2019-05-02T21:58:58.266Z,10.65
2019-05-02T22:03:59.673Z,10.63
2019-05-02T22:09:02.903Z,10.59
2019-05-02T22:14:04.646Z,10.53
2019-05-02T22:19:06.185Z,10.44
2019-05-02T22:24:11.499Z,10.42
2019-05-02T22:29:12.341Z,10.43
2019-05-02T22:34:13.983Z,10.42
2019-05-02T22:39:15.620Z,10.30
2019-05-02T22:44:16.902Z,10.27
2019-05-02T22:49:18.289Z,10.21
2019-05-02T22:54:29.966Z,10.12
2019-05-02T22:59:24.031Z,10.06
2019-05-02T23:04:25.734Z,10.04
2019-05-02T23:09:27.128Z,9.96
2019-05-02T23:14:28.664Z,9.87
2019-05-02T23:19:31.698Z,9.74
2019-05-02T23:24:39.069Z,9.61
2019-05-02T23:29:36.453Z,9.47
2019-05-02T23:34:38.016Z,9.40
2019-05-02T23:39:39.273Z,9.34
2019-05-02T23:44:42.553Z,9.29
2019-05-02T23:49:44.086Z,9.32
2019-05-02T23:54:51.774Z,9.36
2019-05-02T23:59:49.169Z,9.38
